createdAt,value
2017-12-26T00:03:21.565Z,16.90
2017-12-26T00:08:24.204Z,16.90
2017-12-26T00:13:26.831Z,16.90
2017-12-26T00:18:29.511Z,16.90
2017-12-26T00:23:32.182Z,16.90
2017-12-26T00:28:34.787Z,16.90
2017-12-26T00:33:38.713Z,16.90
2017-12-26T00:38:42.047Z,16.90
2017-12-26T00:43:45.346Z,16.90
2017-12-26T00:48:48.850Z,16.90
2017-12-26T00:53:51.894Z,16.90
2017-12-26T00:58:54.506Z,16.90
2017-12-26T01:03:57.157Z,16.90
2017-12-26T01:09:00.570Z,16.90
2017-12-26T01:14:03.176Z,16.80
2017-12-26T01:19:05.812Z,16.90
2017-12-26T01:24:08.879Z,16.80
2017-12-26T01:29:11.538Z,16.80
2017-12-26T01:34:14.120Z,16.80
2017-12-26T01:39:16.689Z,16.80
2017-12-26T01:44:19.274Z,16.80
2017-12-26T01:49:21.850Z,16.80
2017-12-26T01:54:24.505Z,16.80
2017-12-26T01:59:27.075Z,16.80
2017-12-26T02:04:29.719Z,16.80
2017-12-26T02:09:33.139Z,16.80
2017-12-26T02:14:36.605Z,16.70
2017-12-26T02:19:39.219Z,16.80
2017-12-26T02:24:41.808Z,16.70
2017-12-26T02:29:44.380Z,16.80
2017-12-26T02:34:46.961Z,16.80
2017-12-26T02:39:49.537Z,16.80
2017-12-26T02:44:52.137Z,16.80
2017-12-26T02:49:54.727Z,16.70
2017-12-26T02:54:57.340Z,16.80
2017-12-26T02:59:59.908Z,16.70
2017-12-26T03:05:03.230Z,16.70
2017-12-26T03:10:05.835Z,16.70
2017-12-26T03:15:08.466Z,16.70
2017-12-26T03:20:11.127Z,16.70
2017-12-26T03:25:13.738Z,16.70
2017-12-26T03:30:16.408Z,16.70
2017-12-26T03:35:19.026Z,16.70
2017-12-26T03:40:21.611Z,16.70
2017-12-26T03:45:24.590Z,16.70
2017-12-26T03:50:27.926Z,16.60
2017-12-26T03:55:30.520Z,16.60
2017-12-26T04:00:33.162Z,16.70
2017-12-26T04:05:35.788Z,16.70
2017-12-26T04:10:38.571Z,16.70
2017-12-26T04:15:41.922Z,16.70
2017-12-26T04:20:44.548Z,16.70
2017-12-26T04:25:47.747Z,16.70
2017-12-26T04:30:50.318Z,16.70
2017-12-26T04:35:52.890Z,16.60
2017-12-26T04:40:55.826Z,16.60
2017-12-26T04:45:58.940Z,16.60
2017-12-26T04:51:01.557Z,16.60
2017-12-26T04:56:04.127Z,16.60
2017-12-26T05:01:06.770Z,16.60
2017-12-26T05:06:09.371Z,16.60
2017-12-26T05:11:12.746Z,16.60
2017-12-26T05:16:15.424Z,16.60
2017-12-26T05:21:18.068Z,16.60
2017-12-26T05:26:20.734Z,16.60
2017-12-26T05:31:23.361Z,16.60
2017-12-26T05:36:26.056Z,16.60
2017-12-26T05:41:28.766Z,16.60
2017-12-26T05:46:32.133Z,16.60
2017-12-26T05:51:34.776Z,16.60
2017-12-26T05:56:37.401Z,16.60
2017-12-26T06:01:39.996Z,16.50
2017-12-26T06:06:42.662Z,16.60
2017-12-26T06:11:46.016Z,16.60
2017-12-26T06:16:48.621Z,16.60
2017-12-26T06:21:51.273Z,16.60
2017-12-26T06:26:54.636Z,16.60
2017-12-26T06:31:57.305Z,16.50
2017-12-26T06:37:00.575Z,16.60
2017-12-26T06:42:03.186Z,16.50
2017-12-26T06:47:06.615Z,16.60
2017-12-26T06:52:09.241Z,16.50
2017-12-26T06:57:12.011Z,16.50
2017-12-26T07:02:14.676Z,16.50
2017-12-26T07:07:17.707Z,16.50
2017-12-26T07:12:20.898Z,16.50
2017-12-26T07:17:24.112Z,16.50
2017-12-26T07:22:26.751Z,16.50
2017-12-26T07:27:29.580Z,16.50
2017-12-26T07:32:32.215Z,16.50
2017-12-26T07:37:34.832Z,16.50
2017-12-26T07:42:37.454Z,16.50
2017-12-26T07:47:40.042Z,16.50
2017-12-26T07:52:42.634Z,16.50
2017-12-26T07:57:45.194Z,16.50
2017-12-26T08:02:47.764Z,16.50
2017-12-26T08:07:50.306Z,16.50
2017-12-26T08:12:54.059Z,16.50
2017-12-26T08:17:57.740Z,16.50
2017-12-26T08:23:00.313Z,16.50
2017-12-26T08:28:03.793Z,16.50
2017-12-26T08:33:06.424Z,16.50
2017-12-26T08:38:08.979Z,16.50
2017-12-26T08:43:12.096Z,16.50
2017-12-26T08:48:14.765Z,16.50
2017-12-26T08:53:17.394Z,16.50
2017-12-26T08:58:20.323Z,16.50
2017-12-26T09:03:22.950Z,16.50
2017-12-26T09:08:25.593Z,16.50
2017-12-26T09:13:28.231Z,16.50
2017-12-26T09:18:30.866Z,16.50
2017-12-26T09:23:33.464Z,16.50
2017-12-26T09:28:36.179Z,16.50
2017-12-26T09:33:38.878Z,16.50
2017-12-26T09:38:41.518Z,16.50
2017-12-26T09:43:44.110Z,16.50
2017-12-26T09:48:46.750Z,16.60
2017-12-26T09:53:49.686Z,16.60
2017-12-26T09:58:52.288Z,16.50
2017-12-26T10:03:54.969Z,16.50
2017-12-26T10:08:57.756Z,16.60
2017-12-26T10:14:00.358Z,16.60
2017-12-26T10:19:03.398Z,16.60
2017-12-26T10:24:06.203Z,16.60
2017-12-26T10:29:09.467Z,16.60
2017-12-26T10:34:12.874Z,16.60
2017-12-26T10:39:15.970Z,16.60
2017-12-26T10:44:18.599Z,16.60
2017-12-26T10:49:21.557Z,16.60
2017-12-26T10:54:24.117Z,16.60
2017-12-26T10:59:26.749Z,16.60
2017-12-26T11:04:29.343Z,16.60
2017-12-26T11:09:32.964Z,16.60
2017-12-26T11:14:35.558Z,16.70
2017-12-26T11:19:38.175Z,16.70
2017-12-26T11:24:40.835Z,16.70
2017-12-26T11:29:43.432Z,16.70
2017-12-26T11:34:46.048Z,16.70
2017-12-26T11:39:49.036Z,16.70
2017-12-26T11:44:51.786Z,16.70
2017-12-26T11:49:55.149Z,16.70
2017-12-26T11:54:57.739Z,16.70
2017-12-26T12:00:01.092Z,16.70
2017-12-26T12:05:03.734Z,16.70
2017-12-26T12:10:06.453Z,16.70
2017-12-26T12:15:10.102Z,16.70
2017-12-26T12:20:12.681Z,16.70
2017-12-26T12:25:15.253Z,16.70
2017-12-26T12:30:17.808Z,16.70
2017-12-26T12:35:20.370Z,16.70
2017-12-26T12:40:23.614Z,16.70
2017-12-26T12:45:26.247Z,16.60
2017-12-26T12:50:28.920Z,16.60
2017-12-26T12:55:31.666Z,16.60
2017-12-26T13:00:34.328Z,16.70
2017-12-26T13:05:37.228Z,16.60
2017-12-26T13:10:39.828Z,16.70
2017-12-26T13:15:42.425Z,16.60
2017-12-26T13:20:44.996Z,16.60
2017-12-26T13:25:47.562Z,16.60
2017-12-26T13:30:50.931Z,16.70
2017-12-26T13:35:53.523Z,16.70
2017-12-26T13:40:56.117Z,16.70
2017-12-26T13:46:00.235Z,16.70
2017-12-26T13:51:02.854Z,16.70
2017-12-26T13:56:05.472Z,16.60
2017-12-26T14:01:08.049Z,16.60
2017-12-26T14:06:11.448Z,16.60
2017-12-26T14:11:14.051Z,16.60
2017-12-26T14:16:18.127Z,16.60
2017-12-26T14:21:21.870Z,16.60
2017-12-26T14:26:24.497Z,16.60
2017-12-26T14:31:27.168Z,16.60
2017-12-26T14:36:30.882Z,16.60
2017-12-26T14:41:37.698Z,16.60
2017-12-26T14:46:40.423Z,16.60
2017-12-26T14:51:43.003Z,16.60
2017-12-26T14:56:46.587Z,16.60
2017-12-26T15:01:49.222Z,16.60
2017-12-26T15:06:52.024Z,16.60
2017-12-26T15:11:54.611Z,16.50
2017-12-26T15:16:57.228Z,16.50
2017-12-26T15:22:00.011Z,16.50
2017-12-26T15:27:02.639Z,16.60
2017-12-26T15:32:05.300Z,16.50
2017-12-26T15:37:07.874Z,16.60
2017-12-26T15:42:10.466Z,16.50
2017-12-26T15:47:13.087Z,16.60
2017-12-26T15:52:15.720Z,16.50
2017-12-26T15:57:20.651Z,16.50
2017-12-26T16:02:23.189Z,16.50
2017-12-26T16:07:26.000Z,16.50
2017-12-26T16:12:28.689Z,16.50
2017-12-26T16:17:31.293Z,16.50
2017-12-26T16:22:34.272Z,16.50
2017-12-26T16:27:37.870Z,16.50
2017-12-26T16:32:41.382Z,16.50
2017-12-26T16:37:43.970Z,16.50
2017-12-26T16:42:47.334Z,16.50
2017-12-26T16:47:49.987Z,16.50
2017-12-26T16:52:52.878Z,16.50
2017-12-26T16:57:56.520Z,16.50
2017-12-26T17:02:59.905Z,16.50
2017-12-26T17:08:02.842Z,16.50
2017-12-26T17:13:06.185Z,16.50
2017-12-26T17:18:08.824Z,16.50
2017-12-26T17:23:11.432Z,16.40
2017-12-26T17:28:14.778Z,16.50
2017-12-26T17:33:17.723Z,16.40
2017-12-26T17:38:21.540Z,16.50
2017-12-26T17:43:25.059Z,16.50
2017-12-26T17:48:27.672Z,16.40
2017-12-26T17:53:30.426Z,16.50
2017-12-26T17:58:33.531Z,16.40
2017-12-26T18:03:36.180Z,16.40
2017-12-26T18:08:38.796Z,16.40
2017-12-26T18:13:41.543Z,16.40
2017-12-26T18:18:44.226Z,16.40
2017-12-26T18:23:46.865Z,16.40
2017-12-26T18:33:52.448Z,16.40
2017-12-26T18:38:55.087Z,16.40
2017-12-26T18:43:57.714Z,16.40
2017-12-26T18:49:00.339Z,16.40
2017-12-26T18:54:03.452Z,16.40
2017-12-26T18:59:06.034Z,16.40
2017-12-26T19:04:08.655Z,16.40
2017-12-26T19:09:11.264Z,16.40
2017-12-26T19:14:14.598Z,16.40
2017-12-26T19:19:17.232Z,16.40
2017-12-26T19:24:19.807Z,16.40
2017-12-26T19:29:22.401Z,16.30
2017-12-26T19:34:24.994Z,16.40
2017-12-26T19:39:27.653Z,16.40
2017-12-26T19:44:30.300Z,16.40
2017-12-26T19:49:35.600Z,16.40
2017-12-26T19:54:38.355Z,16.30
2017-12-26T19:59:40.969Z,16.40
2017-12-26T20:04:43.926Z,16.40
2017-12-26T20:09:46.541Z,16.30
2017-12-26T20:14:49.191Z,16.30
2017-12-26T20:19:51.818Z,16.30
2017-12-26T20:24:55.006Z,16.30
2017-12-26T20:29:58.396Z,16.30
2017-12-26T20:35:00.990Z,16.30
2017-12-26T20:40:03.693Z,16.30
2017-12-26T20:45:06.896Z,16.30
2017-12-26T20:50:09.554Z,16.30
2017-12-26T20:55:12.167Z,16.30
2017-12-26T21:00:16.343Z,16.30
2017-12-26T21:05:18.957Z,16.30
2017-12-26T21:10:21.691Z,16.30
2017-12-26T21:15:24.337Z,16.30
2017-12-26T21:20:26.905Z,16.30
2017-12-26T21:25:29.493Z,16.30
2017-12-26T21:30:32.064Z,16.30
2017-12-26T21:35:35.098Z,16.30
2017-12-26T21:40:37.686Z,16.30
2017-12-26T21:45:41.101Z,16.30
2017-12-26T21:50:43.712Z,16.30
2017-12-26T21:55:46.860Z,16.30
2017-12-26T22:00:50.148Z,16.30
2017-12-26T22:05:52.745Z,16.30
2017-12-26T22:10:55.320Z,16.30
2017-12-26T22:15:57.879Z,16.30
2017-12-26T22:21:00.513Z,16.30
2017-12-26T22:26:04.653Z,16.30
2017-12-26T22:31:07.250Z,16.20
2017-12-26T22:36:09.858Z,16.30
2017-12-26T22:41:13.586Z,16.20
2017-12-26T22:46:16.254Z,16.30
2017-12-26T22:51:19.653Z,16.30
2017-12-26T22:56:22.241Z,16.20
2017-12-26T23:01:25.271Z,16.30
2017-12-26T23:06:27.865Z,16.20
2017-12-26T23:11:30.487Z,16.30
2017-12-26T23:16:38.963Z,16.30
2017-12-26T23:21:41.536Z,16.20
2017-12-26T23:26:49.758Z,16.30
2017-12-26T23:31:57.929Z,16.20
2017-12-26T23:37:06.321Z,16.30
2017-12-26T23:42:14.444Z,16.20
2017-12-26T23:47:22.716Z,16.20
2017-12-26T23:58:05.572Z,16.20
